Weather at Delta Heritage Air Park

Public forecast

Using degrees Celsius for public forecast. Weather courtesy of forecast.io.

Closest aviation weather report (METAR) to Delta Heritage Air Park

Closest report is Vancouver International Airport, 11.8 nm (21.9 km) NW. Retrieved 2020/11/28 07:00 UTC (32 minutes ago):

CYVR 280700Z 21009KT 20SM SCT047 BKN250 07/06 A3007 RMK SC4CS2 SLP184

Closest aviation forecast (TAF) to Delta Heritage Air Park

Closest forecast is Vancouver International Airport, 11.8 nm (21.9 km) NW. Retrieved 2020/11/28 06:39 UTC (53 minutes ago):

TAF CYVR 280538Z 2806/2912 18012G22KT P6SM FEW040 BKN060 OVC200 TEMPO 2806/2808 P6SM -SHRA BECMG 2806/2808 29010KT FM280800 29008KT P6SM SCT015 BKN030 TEMPO 2808/2815 SCT008 BKN015 FM281500 09008KT P6SM SCT020 TEMPO 2815/2820 BKN020 FM282000 10008KT P6SM SCT040 FM290300 07006KT P6SM FEW040 SCT200 RMK NXT FCST BY 280900Z